createdAt,value
2023-02-09T00:00:30.155Z,-2.80
2023-02-09T00:03:23.721Z,-2.81
2023-02-09T00:05:57.534Z,-2.80
2023-02-09T00:08:32.622Z,-2.80
2023-02-09T00:11:09.589Z,-2.79
2023-02-09T00:13:44.801Z,-2.80
2023-02-09T00:16:18.557Z,-2.80
2023-02-09T00:18:52.166Z,-2.82
2023-02-09T00:21:26.057Z,-2.82
2023-02-09T00:24:00.327Z,-2.84
2023-02-09T00:26:34.652Z,-2.85
2023-02-09T00:29:22.825Z,-2.86
2023-02-09T00:31:57.448Z,-2.91
2023-02-09T00:34:31.277Z,-2.90
2023-02-09T00:37:05.527Z,-2.91
2023-02-09T00:39:39.963Z,-2.90
2023-02-09T00:42:13.707Z,-2.91
2023-02-09T00:44:48.755Z,-2.94
2023-02-09T00:47:22.246Z,-2.98
2023-02-09T00:49:55.798Z,-2.97
2023-02-09T00:52:29.576Z,-2.94
2023-02-09T00:55:03.223Z,-2.90
2023-02-09T00:57:36.993Z,-2.85
2023-02-09T01:00:16.561Z,-2.82
2023-02-09T01:02:50.371Z,-2.80
2023-02-09T01:05:24.120Z,-2.81
2023-02-09T01:07:59.187Z,-2.85
2023-02-09T01:10:32.818Z,-2.88
2023-02-09T01:13:06.801Z,-2.94
2023-02-09T01:15:42.498Z,-3.00
2023-02-09T01:18:16.289Z,-3.10
2023-02-09T01:20:50.082Z,-3.19
2023-02-09T01:23:23.777Z,-3.26
2023-02-09T01:26:08.009Z,-3.32
2023-02-09T01:28:42.359Z,-3.35
2023-02-09T01:31:25.875Z,-3.35
2023-02-09T01:34:02.785Z,-3.35
2023-02-09T01:36:36.929Z,-3.36
2023-02-09T01:39:11.931Z,-3.35
2023-02-09T01:41:46.577Z,-3.36
2023-02-09T01:44:54.964Z,-3.40
2023-02-09T01:47:29.722Z,-3.46
2023-02-09T01:50:05.305Z,-3.49
2023-02-09T01:52:39.585Z,-3.49
2023-02-09T01:55:16.931Z,-3.47
2023-02-09T01:57:56.105Z,-3.48
2023-02-09T02:00:29.761Z,-3.48
2023-02-09T02:03:07.745Z,-3.46
2023-02-09T02:05:45.864Z,-3.45
2023-02-09T02:08:26.060Z,-3.45
2023-02-09T02:11:00.281Z,-3.47
2023-02-09T02:13:33.854Z,-3.50
2023-02-09T02:16:17.705Z,-3.53
2023-02-09T02:19:10.567Z,-3.56
2023-02-09T02:22:16.458Z,-3.56
2023-02-09T02:25:14.933Z,-3.56
2023-02-09T02:27:55.630Z,-3.49
2023-02-09T02:30:46.007Z,-3.46
2023-02-09T02:33:35.378Z,-3.40
2023-02-09T02:36:18.625Z,-3.40
2023-02-09T02:39:02.859Z,-3.40
2023-02-09T02:41:59.925Z,-3.39
2023-02-09T02:44:37.579Z,-3.32
2023-02-09T02:47:15.654Z,-3.27
2023-02-09T02:49:56.129Z,-3.24
2023-02-09T02:52:30.367Z,-3.21
2023-02-09T02:55:08.085Z,-3.18
2023-02-09T02:57:46.660Z,-3.17
2023-02-09T03:00:25.388Z,-3.20
2023-02-09T03:03:02.203Z,-3.23
2023-02-09T03:05:36.909Z,-3.24
2023-02-09T03:08:10.833Z,-3.22
2023-02-09T03:10:45.874Z,-3.23
2023-02-09T03:13:39.502Z,-3.30
2023-02-09T03:16:29.508Z,-3.31
2023-02-09T03:19:16.378Z,-3.31
2023-02-09T03:21:56.883Z,-3.26
2023-02-09T03:24:43.857Z,-3.20
2023-02-09T03:27:21.234Z,-3.14
2023-02-09T03:30:01.224Z,-3.12
2023-02-09T03:32:38.638Z,-3.13
2023-02-09T03:35:16.545Z,-3.12
2023-02-09T03:37:52.737Z,-3.14
2023-02-09T03:40:26.574Z,-3.11
2023-02-09T03:43:03.054Z,-3.06
2023-02-09T03:45:36.644Z,-3.03
2023-02-09T03:48:10.408Z,-3.02
2023-02-09T03:50:44.949Z,-2.99
2023-02-09T03:53:19.150Z,-2.96
2023-02-09T03:55:52.771Z,-2.96
2023-02-09T03:58:26.492Z,-3.00
2023-02-09T04:01:06.493Z,-3.03
2023-02-09T04:03:41.504Z,-3.02
2023-02-09T04:06:25.601Z,-3.00
2023-02-09T04:08:59.680Z,-2.97
2023-02-09T04:11:33.346Z,-2.94
2023-02-09T04:14:09.466Z,-2.91
2023-02-09T04:16:53.645Z,-2.92
2023-02-09T04:19:27.657Z,-2.98
2023-02-09T04:22:01.829Z,-3.02
2023-02-09T04:24:51.130Z,-3.11
2023-02-09T04:27:24.997Z,-3.15
2023-02-09T04:29:58.852Z,-3.15
2023-02-09T04:32:32.780Z,-3.18
2023-02-09T04:35:07.134Z,-3.17
2023-02-09T04:37:41.358Z,-3.16
2023-02-09T04:40:16.037Z,-3.16
2023-02-09T04:42:50.310Z,-3.12
2023-02-09T04:45:24.359Z,-3.09
2023-02-09T04:47:57.885Z,-3.08
2023-02-09T04:50:31.558Z,-3.04
2023-02-09T04:53:05.474Z,-3.05
2023-02-09T04:55:40.496Z,-3.04
2023-02-09T04:58:34.144Z,-3.02
2023-02-09T05:01:09.634Z,-3.03
2023-02-09T05:03:44.259Z,-3.03
2023-02-09T05:06:18.039Z,-3.08
2023-02-09T05:08:51.616Z,-3.10
2023-02-09T05:11:25.807Z,-3.09
2023-02-09T05:14:00.139Z,-3.11
2023-02-09T05:16:33.989Z,-3.13
2023-02-09T05:19:07.654Z,-3.16
2023-02-09T05:21:41.235Z,-3.21
2023-02-09T05:24:15.374Z,-3.25
2023-02-09T05:26:49.117Z,-3.28
2023-02-09T05:29:23.067Z,-3.29
2023-02-09T05:31:56.936Z,-3.33
2023-02-09T05:34:30.665Z,-3.38
2023-02-09T05:37:04.220Z,-3.39
2023-02-09T05:39:38.039Z,-3.45
2023-02-09T05:42:17.121Z,-3.48
2023-02-09T05:44:52.406Z,-3.49
2023-02-09T05:47:27.262Z,-3.56
2023-02-09T05:50:01.196Z,-3.61
2023-02-09T05:52:34.722Z,-3.66
2023-02-09T05:55:09.335Z,-3.69
2023-02-09T05:57:43.841Z,-3.71
2023-02-09T06:00:19.046Z,-3.68
2023-02-09T06:02:53.284Z,-3.68
2023-02-09T06:05:27.133Z,-3.67
2023-02-09T06:08:01.052Z,-3.67
2023-02-09T06:10:34.864Z,-3.67
2023-02-09T06:13:08.840Z,-3.68
2023-02-09T06:15:42.672Z,-3.73
2023-02-09T06:18:16.359Z,-3.79
2023-02-09T06:20:50.094Z,-3.87
2023-02-09T06:23:24.111Z,-3.89
2023-02-09T06:26:01.018Z,-3.92
2023-02-09T06:28:34.666Z,-3.93
2023-02-09T06:31:09.221Z,-3.93
2023-02-09T06:33:43.791Z,-3.93
2023-02-09T06:36:17.545Z,-3.91
2023-02-09T06:38:51.579Z,-3.93
2023-02-09T06:41:25.740Z,-3.99
2023-02-09T06:43:59.417Z,-4.03
2023-02-09T06:46:33.486Z,-4.04
2023-02-09T06:49:07.644Z,-4.04
2023-02-09T06:51:41.570Z,-4.03
2023-02-09T06:54:15.728Z,-4.00
2023-02-09T06:56:49.474Z,-4.00
2023-02-09T06:59:23.272Z,-4.01
2023-02-09T07:01:56.957Z,-3.99
2023-02-09T07:04:30.947Z,-3.95
2023-02-09T07:07:04.312Z,-3.91
2023-02-09T07:09:38.100Z,-3.88
2023-02-09T07:12:12.319Z,-3.84
2023-02-09T07:14:46.149Z,-3.84
2023-02-09T07:17:19.890Z,-3.80
2023-02-09T07:19:53.798Z,-3.75
2023-02-09T07:22:27.593Z,-3.73
2023-02-09T07:25:01.369Z,-3.68
2023-02-09T07:27:35.288Z,-3.62
2023-02-09T07:30:10.971Z,-3.54
2023-02-09T07:32:44.873Z,-3.49
2023-02-09T07:35:18.777Z,-3.42
2023-02-09T07:37:52.794Z,-3.34
2023-02-09T07:40:30.045Z,-3.28
2023-02-09T07:43:03.681Z,-3.27
2023-02-09T07:45:37.506Z,-3.30
2023-02-09T07:48:21.200Z,-3.28
2023-02-09T07:50:55.104Z,-3.01
2023-02-09T07:53:29.303Z,-2.25
2023-02-09T07:56:03.323Z,-0.95
2023-02-09T07:58:37.362Z,0.54
2023-02-09T08:01:13.776Z,1.75
2023-02-09T08:03:49.660Z,2.42
2023-02-09T08:06:41.038Z,3.27
2023-02-09T08:09:18.204Z,4.22
2023-02-09T08:11:55.924Z,4.30
2023-02-09T08:14:32.741Z,3.74
2023-02-09T08:17:26.294Z,3.13
2023-02-09T08:20:05.701Z,3.02
2023-02-09T08:22:43.945Z,3.29
2023-02-09T08:25:19.425Z,3.27
2023-02-09T08:27:54.732Z,3.23
2023-02-09T08:30:29.043Z,2.83
2023-02-09T08:33:03.226Z,2.34
2023-02-09T08:35:36.938Z,1.79
2023-02-09T08:38:10.579Z,1.23
2023-02-09T08:40:44.644Z,0.81
2023-02-09T08:43:18.461Z,0.61
2023-02-09T08:45:52.802Z,0.63
2023-02-09T08:48:31.296Z,0.52
2023-02-09T08:51:05.642Z,0.28
2023-02-09T08:53:39.874Z,0.04
2023-02-09T08:56:13.494Z,0.02
2023-02-09T08:58:47.388Z,0.08
2023-02-09T09:01:32.629Z,0.05
2023-02-09T09:04:06.583Z,0.01
2023-02-09T09:06:40.618Z,0.09
2023-02-09T09:09:14.517Z,0.08
2023-02-09T09:11:57.560Z,-0.05
2023-02-09T09:14:32.217Z,-0.14
2023-02-09T09:17:05.940Z,-0.23
2023-02-09T09:19:39.852Z,-0.07
2023-02-09T09:22:13.936Z,0.75
2023-02-09T09:24:47.826Z,2.39
2023-02-09T09:27:21.954Z,4.69
2023-02-09T09:29:55.799Z,6.72
2023-02-09T09:32:32.275Z,7.05
2023-02-09T09:35:14.220Z,6.08
2023-02-09T09:38:08.568Z,4.90
2023-02-09T09:40:53.862Z,4.09
2023-02-09T09:43:36.783Z,3.52
2023-02-09T09:46:18.859Z,3.08
2023-02-09T09:48:56.594Z,2.71
2023-02-09T09:51:38.844Z,2.40
2023-02-09T09:54:19.215Z,2.18
2023-02-09T09:57:03.592Z,1.95
2023-02-09T09:59:39.647Z,2.07
2023-02-09T10:02:25.406Z,2.14
2023-02-09T10:05:04.016Z,2.08
2023-02-09T10:07:36.159Z,1.94
2023-02-09T10:10:19.798Z,1.79
2023-02-09T10:12:57.675Z,1.66
2023-02-09T10:15:35.251Z,1.54
2023-02-09T10:18:16.064Z,1.48
2023-02-09T10:20:55.093Z,1.53
2023-02-09T10:23:41.565Z,1.58
2023-02-09T10:26:27.018Z,1.68
2023-02-09T10:29:09.257Z,1.88
2023-02-09T10:31:46.586Z,2.12
2023-02-09T10:34:23.299Z,2.53
2023-02-09T10:37:09.098Z,3.96
2023-02-09T10:39:43.328Z,4.76
2023-02-09T10:42:22.285Z,4.67
2023-02-09T10:44:58.479Z,4.68
2023-02-09T10:47:33.356Z,5.73
2023-02-09T10:50:20.214Z,7.25
2023-02-09T10:53:03.476Z,8.26
2023-02-09T10:55:41.879Z,9.51
2023-02-09T10:58:26.778Z,10.52
2023-02-09T11:01:08.319Z,10.92
2023-02-09T11:04:05.946Z,10.76
2023-02-09T11:06:57.015Z,10.31
2023-02-09T11:09:33.414Z,10.03
2023-02-09T11:12:14.402Z,9.54
2023-02-09T11:14:48.469Z,9.50
2023-02-09T11:17:26.289Z,9.46
2023-02-09T11:20:31.167Z,9.13
2023-02-09T11:23:39.573Z,9.20
2023-02-09T11:26:22.275Z,9.44
2023-02-09T11:29:13.844Z,9.94
2023-02-09T11:32:05.138Z,10.33
2023-02-09T11:35:39.062Z,10.65
2023-02-09T11:38:53.596Z,10.64
2023-02-09T11:41:52.177Z,10.48
2023-02-09T11:44:34.122Z,10.56
2023-02-09T11:47:16.420Z,10.73
2023-02-09T11:49:54.167Z,11.09
2023-02-09T11:52:38.117Z,11.45
2023-02-09T11:55:28.004Z,11.55
2023-02-09T11:58:17.776Z,11.08
2023-02-09T12:01:20.801Z,10.56
2023-02-09T12:04:05.325Z,10.14
2023-02-09T12:06:42.827Z,9.54
2023-02-09T12:09:33.474Z,9.02
2023-02-09T12:12:15.629Z,8.56
2023-02-09T12:15:07.437Z,8.24
2023-02-09T12:17:56.712Z,8.38
2023-02-09T12:20:33.546Z,8.76
2023-02-09T12:23:17.691Z,8.92
2023-02-09T12:26:00.280Z,8.95
2023-02-09T12:28:45.914Z,8.94
2023-02-09T12:31:30.072Z,8.80
2023-02-09T12:34:29.663Z,8.72
2023-02-09T12:37:29.250Z,8.93
2023-02-09T12:40:26.103Z,9.20
2023-02-09T12:43:37.469Z,9.42
2023-02-09T12:46:21.454Z,9.41
2023-02-09T12:49:21.006Z,9.37
2023-02-09T12:52:14.022Z,9.03
2023-02-09T12:54:50.752Z,8.62
2023-02-09T12:57:56.057Z,8.68
2023-02-09T13:00:57.650Z,8.69
2023-02-09T13:03:33.172Z,8.47
2023-02-09T13:06:24.096Z,8.42
2023-02-09T13:09:00.345Z,8.49
2023-02-09T13:11:45.308Z,8.50
2023-02-09T13:14:20.531Z,8.80
2023-02-09T13:17:24.954Z,8.75
2023-02-09T13:20:34.796Z,8.60
2023-02-09T13:23:34.564Z,8.42
2023-02-09T13:26:20.557Z,8.36
2023-02-09T13:29:19.749Z,8.44
2023-02-09T13:32:06.006Z,8.41
2023-02-09T13:34:46.774Z,8.38
2023-02-09T13:37:36.968Z,8.22
2023-02-09T13:40:19.912Z,8.10
2023-02-09T13:43:21.897Z,7.89
2023-02-09T13:45:59.604Z,7.82
2023-02-09T13:48:36.570Z,7.98
2023-02-09T13:51:20.353Z,8.29
2023-02-09T13:54:04.672Z,8.39
2023-02-09T13:56:59.025Z,8.52
2023-02-09T13:59:42.309Z,8.68
2023-02-09T14:02:29.514Z,8.67
2023-02-09T14:05:06.972Z,8.56
2023-02-09T14:07:41.531Z,8.49
2023-02-09T14:10:18.452Z,8.35
2023-02-09T14:13:00.412Z,8.20
2023-02-09T14:16:00.173Z,8.02
2023-02-09T14:18:48.266Z,7.81
2023-02-09T14:21:27.322Z,7.52
2023-02-09T14:24:19.197Z,7.18
2023-02-09T14:27:04.346Z,6.92
2023-02-09T14:29:39.453Z,6.72
2023-02-09T14:32:33.633Z,6.49
2023-02-09T14:35:22.262Z,6.15
2023-02-09T14:37:58.293Z,5.89
2023-02-09T14:40:37.494Z,5.66
2023-02-09T14:43:25.710Z,5.47
2023-02-09T14:46:03.647Z,5.28
2023-02-09T14:48:37.548Z,5.14
2023-02-09T14:51:17.670Z,5.03
2023-02-09T14:53:52.226Z,4.91
2023-02-09T14:56:32.005Z,4.81
2023-02-09T14:59:07.626Z,4.72
2023-02-09T15:01:41.906Z,4.62
2023-02-09T15:04:16.039Z,4.53
2023-02-09T15:06:55.134Z,4.41
2023-02-09T15:09:33.498Z,4.31
2023-02-09T15:12:09.050Z,4.23
2023-02-09T15:14:45.968Z,4.12
2023-02-09T15:17:23.828Z,4.04
2023-02-09T15:19:59.208Z,3.96
2023-02-09T15:22:33.914Z,3.88
2023-02-09T15:25:08.668Z,3.81
2023-02-09T15:27:51.190Z,3.74
2023-02-09T15:30:27.964Z,3.65
2023-02-09T15:33:02.136Z,3.58
2023-02-09T15:35:36.237Z,3.55
2023-02-09T15:38:15.043Z,3.49
2023-02-09T15:41:09.039Z,3.42
2023-02-09T15:44:00.962Z,3.36
2023-02-09T15:46:56.075Z,3.30
2023-02-09T15:49:31.843Z,3.22
2023-02-09T15:52:05.951Z,3.17
2023-02-09T15:54:54.286Z,3.12
2023-02-09T15:57:29.836Z,3.08
2023-02-09T16:00:04.698Z,3.01
2023-02-09T16:02:40.608Z,2.95
2023-02-09T16:05:17.444Z,2.91
2023-02-09T16:07:53.409Z,2.89
2023-02-09T16:10:30.756Z,2.85
2023-02-09T16:13:09.020Z,2.81
2023-02-09T16:16:04.944Z,2.75
2023-02-09T16:18:47.682Z,2.66
2023-02-09T16:21:28.090Z,2.62
2023-02-09T16:24:05.635Z,2.59
2023-02-09T16:26:41.639Z,2.56
2023-02-09T16:29:18.850Z,2.54
2023-02-09T16:32:05.243Z,2.49
2023-02-09T16:34:39.648Z,2.45
2023-02-09T16:37:16.057Z,2.41
2023-02-09T16:39:51.436Z,2.40
2023-02-09T16:42:26.916Z,2.35
2023-02-09T16:45:02.795Z,2.32
2023-02-09T16:47:39.667Z,2.30
2023-02-09T16:50:25.243Z,2.29
2023-02-09T16:53:05.996Z,2.26
2023-02-09T16:55:43.601Z,2.24
2023-02-09T16:58:21.592Z,2.22
2023-02-09T17:00:57.669Z,2.21
2023-02-09T17:03:37.697Z,2.17
2023-02-09T17:06:18.883Z,2.15
2023-02-09T17:08:57.597Z,2.12
2023-02-09T17:11:34.304Z,2.08
2023-02-09T17:14:09.158Z,2.03
2023-02-09T17:16:51.054Z,1.99
2023-02-09T17:19:29.392Z,1.96
2023-02-09T17:22:15.192Z,1.91
2023-02-09T17:24:55.983Z,1.87
2023-02-09T17:27:34.176Z,1.82
2023-02-09T17:30:17.705Z,1.77
2023-02-09T17:33:01.399Z,1.72
2023-02-09T17:38:41.778Z,1.62
2023-02-09T17:41:22.146Z,1.57
2023-02-09T17:44:17.529Z,1.53
2023-02-09T17:46:57.235Z,1.49
2023-02-09T17:49:34.694Z,1.45
2023-02-09T17:52:13.973Z,1.42
2023-02-09T17:54:52.794Z,1.37
2023-02-09T17:57:32.838Z,1.34
2023-02-09T18:00:11.916Z,1.29
2023-02-09T18:02:47.119Z,1.25
2023-02-09T18:05:27.524Z,1.23
2023-02-09T18:08:04.924Z,1.21
2023-02-09T18:10:46.033Z,1.19
2023-02-09T18:13:37.236Z,1.18
2023-02-09T18:16:17.288Z,1.15
2023-02-09T18:18:53.929Z,1.12
2023-02-09T18:21:33.182Z,1.09
2023-02-09T18:24:10.807Z,1.08
2023-02-09T18:26:47.681Z,1.04
2023-02-09T18:29:27.098Z,1.03
2023-02-09T18:32:15.752Z,1.01
2023-02-09T18:34:58.807Z,0.98
2023-02-09T18:37:37.721Z,0.96
2023-02-09T18:40:18.760Z,0.95
2023-02-09T18:43:18.036Z,0.95
2023-02-09T18:45:55.648Z,0.94
2023-02-09T18:48:39.543Z,0.93
2023-02-09T18:51:18.794Z,0.92
2023-02-09T18:54:06.097Z,0.92
2023-02-09T18:56:46.152Z,0.91
2023-02-09T18:59:31.315Z,0.92
2023-02-09T19:02:17.915Z,0.92
2023-02-09T19:04:59.003Z,0.92
2023-02-09T19:07:46.265Z,0.91
2023-02-09T19:10:34.073Z,0.91
2023-02-09T19:13:11.868Z,0.90
2023-02-09T19:15:51.821Z,0.89
2023-02-09T19:18:30.193Z,0.89
2023-02-09T19:21:13.092Z,0.88
2023-02-09T19:23:58.969Z,0.89
2023-02-09T19:26:35.761Z,0.88
2023-02-09T19:29:12.139Z,0.88
2023-02-09T19:31:50.066Z,0.87
2023-02-09T19:34:36.244Z,0.87
2023-02-09T19:37:13.782Z,0.86
2023-02-09T19:40:05.991Z,0.85
2023-02-09T19:42:54.631Z,0.84
2023-02-09T19:45:37.694Z,0.83
2023-02-09T19:48:14.788Z,0.82
2023-02-09T19:51:01.979Z,0.83
2023-02-09T19:53:41.872Z,0.82
2023-02-09T19:56:24.352Z,0.81
2023-02-09T19:59:11.395Z,0.80
2023-02-09T20:01:51.284Z,0.76
2023-02-09T20:04:32.715Z,0.73
2023-02-09T20:07:10.350Z,0.72
2023-02-09T20:09:51.353Z,0.70
2023-02-09T20:12:28.142Z,0.69
2023-02-09T20:15:05.617Z,0.69
2023-02-09T20:17:57.806Z,0.69
2023-02-09T20:20:38.644Z,0.68
2023-02-09T20:23:27.167Z,0.68
2023-02-09T20:26:11.879Z,0.68
2023-02-09T20:28:51.081Z,0.70
2023-02-09T20:31:40.421Z,0.72
2023-02-09T20:34:22.099Z,0.73
2023-02-09T20:36:59.556Z,0.75
2023-02-09T20:39:51.968Z,0.75
2023-02-09T20:42:50.379Z,0.76
2023-02-09T20:45:44.690Z,0.78
2023-02-09T20:48:21.106Z,0.80
2023-02-09T20:50:56.907Z,0.82
2023-02-09T20:53:35.246Z,0.83
2023-02-09T20:56:09.477Z,0.84
2023-02-09T20:58:46.920Z,0.84
2023-02-09T21:01:24.500Z,0.87
2023-02-09T21:04:01.262Z,0.89
2023-02-09T21:06:39.538Z,0.93
2023-02-09T21:09:26.988Z,0.97
2023-02-09T21:12:02.409Z,1.01
2023-02-09T21:14:46.302Z,1.05
2023-02-09T21:17:25.803Z,1.08
2023-02-09T21:20:06.613Z,1.12
2023-02-09T21:22:41.327Z,1.14
2023-02-09T21:25:17.347Z,1.18
2023-02-09T21:27:56.632Z,1.21
2023-02-09T21:30:33.649Z,1.24
2023-02-09T21:33:12.222Z,1.26
2023-02-09T21:35:47.588Z,1.27
2023-02-09T21:38:22.553Z,1.28
2023-02-09T21:40:57.789Z,1.28
2023-02-09T21:43:37.144Z,1.27
2023-02-09T21:46:18.336Z,1.27
2023-02-09T21:48:52.811Z,1.28
2023-02-09T21:51:26.840Z,1.28
2023-02-09T21:54:01.131Z,1.27
2023-02-09T21:56:34.856Z,1.27
2023-02-09T21:59:08.250Z,1.25
2023-02-09T22:01:42.869Z,1.24
2023-02-09T22:04:17.182Z,1.22
2023-02-09T22:06:51.351Z,1.22
2023-02-09T22:09:29.235Z,1.20
2023-02-09T22:12:13.231Z,1.19
2023-02-09T22:14:46.887Z,1.18
2023-02-09T22:17:20.867Z,1.17
2023-02-09T22:19:54.950Z,1.18
2023-02-09T22:22:28.840Z,1.15
2023-02-09T22:25:02.774Z,1.14
2023-02-09T22:27:36.666Z,1.14
2023-02-09T22:30:29.636Z,1.13
2023-02-09T22:33:03.587Z,1.13
2023-02-09T22:35:41.377Z,1.11
2023-02-09T22:38:14.980Z,1.10
2023-02-09T22:40:48.601Z,1.07
2023-02-09T22:43:22.194Z,1.04
2023-02-09T22:46:00.304Z,1.04
2023-02-09T22:48:33.888Z,1.05
2023-02-09T22:51:07.959Z,1.03
2023-02-09T22:53:41.784Z,1.02
2023-02-09T22:56:25.567Z,1.01
2023-02-09T22:59:03.821Z,1.01
2023-02-09T23:01:47.615Z,1.00
2023-02-09T23:04:21.990Z,0.99
2023-02-09T23:06:56.172Z,0.99
2023-02-09T23:09:50.214Z,0.99
2023-02-09T23:12:24.152Z,0.99
2023-02-09T23:14:57.825Z,0.98
2023-02-09T23:17:52.233Z,0.99
2023-02-09T23:20:31.322Z,1.00
2023-02-09T23:23:06.930Z,1.00
2023-02-09T23:26:01.700Z,0.99
2023-02-09T23:28:35.542Z,0.99
2023-02-09T23:31:12.393Z,0.99
2023-02-09T23:33:46.937Z,0.99
2023-02-09T23:36:26.109Z,1.00
2023-02-09T23:39:02.212Z,0.98
2023-02-09T23:41:39.610Z,0.96
2023-02-09T23:44:13.826Z,0.94
2023-02-09T23:46:47.890Z,0.92
2023-02-09T23:49:23.009Z,0.89
2023-02-09T23:51:56.464Z,0.87
2023-02-09T23:54:30.615Z,0.85
2023-02-09T23:57:04.288Z,0.85
2023-02-09T23:59:42.177Z,0.85
